createdAt,value
2019-03-30T00:00:04.271Z,5.9
2019-03-30T00:01:27.796Z,5.9
2019-03-30T00:02:26.668Z,5.9
2019-03-30T00:03:25.549Z,5.9
2019-03-30T00:04:24.987Z,5.8
2019-03-30T00:05:23.862Z,5.8
2019-03-30T00:05:54.552Z,5.8
2019-03-30T00:06:25.285Z,5.8
2019-03-30T00:06:55.464Z,5.8
2019-03-30T00:07:25.874Z,5.8
2019-03-30T00:07:56.467Z,5.8
2019-03-30T00:08:27.200Z,5.8
2019-03-30T00:08:57.603Z,5.8
2019-03-30T00:10:19.128Z,5.8
2019-03-30T00:11:18.402Z,5.8
2019-03-30T00:12:17.272Z,5.8
2019-03-30T00:13:16.552Z,5.7
2019-03-30T00:14:15.216Z,5.7
2019-03-30T00:15:14.403Z,5.7
2019-03-30T00:15:44.997Z,5.7
2019-03-30T00:16:15.604Z,5.7
2019-03-30T00:16:46.347Z,5.7
2019-03-30T00:17:16.530Z,5.7
2019-03-30T00:17:47.660Z,5.7
2019-03-30T00:18:17.774Z,5.7
2019-03-30T00:18:48.576Z,5.7
2019-03-30T00:19:18.755Z,5.7
2019-03-30T00:19:49.337Z,5.7
2019-03-30T00:21:08.834Z,5.7
2019-03-30T00:22:07.632Z,5.7
2019-03-30T00:23:06.811Z,5.7
2019-03-30T00:24:06.185Z,5.7
2019-03-30T00:25:04.962Z,5.7
2019-03-30T00:25:35.659Z,5.7
2019-03-30T00:26:05.859Z,5.6
2019-03-30T00:26:36.591Z,5.6
2019-03-30T00:27:06.777Z,5.6
2019-03-30T00:27:37.460Z,5.6
2019-03-30T00:28:08.139Z,5.6
2019-03-30T00:28:38.731Z,5.6
2019-03-30T00:29:09.415Z,5.6
2019-03-30T00:29:39.908Z,5.6
2019-03-30T00:30:59.344Z,5.6
2019-03-30T00:31:58.720Z,5.7
2019-03-30T00:32:57.495Z,5.6
2019-03-30T00:33:56.865Z,5.7
2019-03-30T00:34:55.730Z,5.7
2019-03-30T00:35:54.598Z,5.7
2019-03-30T00:36:25.208Z,5.7
2019-03-30T00:36:55.825Z,5.7
2019-03-30T00:37:26.519Z,5.7
2019-03-30T00:37:57.202Z,5.7
2019-03-30T00:38:27.886Z,5.7
2019-03-30T00:38:58.469Z,5.6
2019-03-30T00:39:28.980Z,5.6
2019-03-30T00:40:50.454Z,5.6
2019-03-30T00:41:49.228Z,5.6
2019-03-30T00:42:48.366Z,5.6
2019-03-30T00:43:47.767Z,5.6
2019-03-30T00:44:45.946Z,5.5
2019-03-30T00:45:45.233Z,5.5
2019-03-30T00:46:44.578Z,5.5
2019-03-30T00:47:14.657Z,5.5
2019-03-30T00:48:42.622Z,5.5
2019-03-30T00:49:13.333Z,5.5
2019-03-30T00:50:40.301Z,5.4
2019-03-30T00:51:39.725Z,5.4
2019-03-30T00:52:38.595Z,5.4
2019-03-30T00:53:37.872Z,5.5
2019-03-30T00:54:36.663Z,5.5
2019-03-30T00:55:35.939Z,5.5
2019-03-30T00:56:34.605Z,5.5
2019-03-30T00:57:05.196Z,5.5
2019-03-30T00:57:35.880Z,5.5
2019-03-30T00:58:06.068Z,5.5
2019-03-30T00:58:36.673Z,5.5
2019-03-30T00:59:07.276Z,5.5
2019-03-30T01:00:31.209Z,5.5
2019-03-30T01:01:30.080Z,5.4
2019-03-30T01:02:29.444Z,5.4
2019-03-30T01:03:28.217Z,5.4
2019-03-30T01:04:27.592Z,5.4
2019-03-30T01:05:26.464Z,5.5
2019-03-30T01:07:24.716Z,5.4
2019-03-30T01:07:55.407Z,5.4
2019-03-30T01:08:25.894Z,5.4
2019-03-30T01:08:56.477Z,5.4
2019-03-30T01:10:21.599Z,5.4
2019-03-30T01:11:20.960Z,5.4
2019-03-30T01:12:19.754Z,5.4
2019-03-30T01:13:19.033Z,5.4
2019-03-30T01:14:17.895Z,5.4
2019-03-30T01:16:16.061Z,5.4
2019-03-30T01:17:14.832Z,5.4
2019-03-30T01:18:14.011Z,5.4
2019-03-30T01:18:44.698Z,5.4
2019-03-30T01:19:15.453Z,5.4
2019-03-30T01:19:45.945Z,5.4
2019-03-30T01:20:16.634Z,5.4
2019-03-30T01:21:11.180Z,5.4
2019-03-30T01:22:10.556Z,5.4
2019-03-30T01:23:09.419Z,5.4
2019-03-30T01:24:08.713Z,5.4
2019-03-30T01:25:07.511Z,5.4
2019-03-30T01:26:06.379Z,5.4
2019-03-30T01:27:05.756Z,5.4
2019-03-30T01:28:04.450Z,5.4
2019-03-30T01:29:03.728Z,5.4
2019-03-30T01:29:34.223Z,5.4
2019-03-30T01:30:04.921Z,5.4
2019-03-30T01:31:01.781Z,5.4
2019-03-30T01:32:00.568Z,5.4
2019-03-30T01:32:59.957Z,5.4
2019-03-30T01:33:58.830Z,5.4
2019-03-30T01:34:29.520Z,5.4
2019-03-30T01:35:00.450Z,5.5
2019-03-30T01:35:57.117Z,5.4
2019-03-30T01:36:56.002Z,5.5
2019-03-30T01:37:55.374Z,5.5
2019-03-30T01:38:54.249Z,5.5
2019-03-30T01:39:24.948Z,5.5
2019-03-30T01:39:55.027Z,5.5
2019-03-30T01:40:52.289Z,5.5
2019-03-30T01:41:51.460Z,5.6
2019-03-30T01:42:50.334Z,5.6
2019-03-30T01:43:49.703Z,5.6
2019-03-30T01:44:20.392Z,5.6
2019-03-30T01:44:51.090Z,5.6
2019-03-30T01:45:21.778Z,5.6
2019-03-30T01:45:52.463Z,5.6
2019-03-30T01:46:46.821Z,5.6
2019-03-30T01:47:45.601Z,5.6
2019-03-30T01:48:44.965Z,5.6
2019-03-30T01:49:43.826Z,5.7
2019-03-30T01:50:42.691Z,5.7
2019-03-30T01:51:42.063Z,5.7
2019-03-30T01:52:40.744Z,5.7
2019-03-30T01:53:40.127Z,5.7
2019-03-30T01:54:10.715Z,5.7
2019-03-30T01:54:41.394Z,5.7
2019-03-30T01:55:12.090Z,5.7
2019-03-30T01:56:37.124Z,5.7
2019-03-30T01:57:36.403Z,5.7
2019-03-30T01:58:35.272Z,5.7
2019-03-30T01:59:34.043Z,5.7
2019-03-30T02:00:33.319Z,5.7
2019-03-30T02:01:32.693Z,5.7
2019-03-30T02:02:31.458Z,5.7
2019-03-30T02:03:30.632Z,5.7
2019-03-30T02:04:01.216Z,5.7
2019-03-30T02:04:31.909Z,5.7
2019-03-30T02:05:02.612Z,5.7
2019-03-30T02:06:27.556Z,5.7
2019-03-30T02:07:26.836Z,5.6
2019-03-30T02:08:25.415Z,5.6
2019-03-30T02:09:24.719Z,5.6
2019-03-30T02:10:24.086Z,5.6
2019-03-30T02:11:22.945Z,5.6
2019-03-30T02:12:22.435Z,5.6
2019-03-30T02:13:21.315Z,5.7
2019-03-30T02:13:51.509Z,5.7
2019-03-30T02:14:22.193Z,5.7
2019-03-30T02:14:52.786Z,5.7
2019-03-30T02:15:23.276Z,5.8
2019-03-30T02:15:53.864Z,5.8
2019-03-30T02:17:20.829Z,5.8
2019-03-30T02:18:16.178Z,5.8
2019-03-30T02:19:15.552Z,5.8
2019-03-30T02:20:14.322Z,5.9
2019-03-30T02:21:13.692Z,6
2019-03-30T02:22:12.561Z,6
2019-03-30T02:23:11.751Z,6
2019-03-30T02:23:42.448Z,6
2019-03-30T02:24:13.058Z,6.1
2019-03-30T02:24:43.456Z,6.1
2019-03-30T02:25:14.044Z,6
2019-03-30T02:25:44.638Z,6
2019-03-30T02:26:15.336Z,6.1
2019-03-30T02:26:46.019Z,6.1
2019-03-30T02:28:08.157Z,6.2
2019-03-30T02:29:05.919Z,6.2
2019-03-30T02:30:05.314Z,6.3
2019-03-30T02:31:04.233Z,6.3
2019-03-30T02:32:03.132Z,6.3
2019-03-30T02:33:01.910Z,6.4
2019-03-30T02:33:32.614Z,6.4
2019-03-30T02:34:03.349Z,6.4
2019-03-30T02:34:33.577Z,6.4
2019-03-30T02:35:03.703Z,6.5
2019-03-30T02:35:34.413Z,6.5
2019-03-30T02:36:04.632Z,6.5
2019-03-30T02:36:34.816Z,6.5
2019-03-30T02:37:05.537Z,6.5
2019-03-30T02:37:35.830Z,6.5
2019-03-30T02:38:56.420Z,6.4
2019-03-30T02:39:55.818Z,6.4
2019-03-30T02:40:54.698Z,6.4
2019-03-30T02:41:54.026Z,6.4
2019-03-30T02:42:52.919Z,6.4
2019-03-30T02:43:23.134Z,6.4
2019-03-30T02:43:53.351Z,6.4
2019-03-30T02:44:23.556Z,6.4
2019-03-30T02:44:53.756Z,6.4
2019-03-30T02:45:24.391Z,6.4
2019-03-30T02:45:55.105Z,6.5
2019-03-30T02:46:25.238Z,6.5
2019-03-30T02:46:55.868Z,6.5
2019-03-30T02:47:26.482Z,6.5
2019-03-30T02:48:47.011Z,6.4
2019-03-30T02:49:46.305Z,6.4
2019-03-30T02:50:51.917Z,6.4
2019-03-30T02:51:44.175Z,6.4
2019-03-30T02:52:43.520Z,6.4
2019-03-30T02:53:42.319Z,6.4
2019-03-30T02:54:12.530Z,6.4
2019-03-30T02:54:42.802Z,6.4
2019-03-30T02:55:14.042Z,6.4
2019-03-30T02:55:43.228Z,6.3
2019-03-30T02:56:13.454Z,6.3
2019-03-30T02:56:43.663Z,6.3
2019-03-30T02:57:14.281Z,6.3
2019-03-30T02:57:44.923Z,6.3
2019-03-30T02:58:15.031Z,6.3
2019-03-30T02:59:37.126Z,6.3
2019-03-30T03:00:36.002Z,6.3
2019-03-30T03:01:34.933Z,6.2
2019-03-30T03:02:33.826Z,6.2
2019-03-30T03:03:33.151Z,6.2
2019-03-30T03:04:03.882Z,6.2
2019-03-30T03:04:33.998Z,6.2
2019-03-30T03:05:04.523Z,6.2
2019-03-30T03:05:35.277Z,6.2
2019-03-30T03:06:05.410Z,6.2
2019-03-30T03:06:36.139Z,6.1
2019-03-30T03:07:06.354Z,6.1
2019-03-30T03:07:36.438Z,6.1
2019-03-30T03:08:07.195Z,6.1
2019-03-30T03:09:27.737Z,6.1
2019-03-30T03:10:26.426Z,6.1
2019-03-30T03:11:25.823Z,6.1
2019-03-30T03:12:24.613Z,6.1
2019-03-30T03:13:23.503Z,6
2019-03-30T03:14:22.883Z,6
2019-03-30T03:14:53.585Z,6
2019-03-30T03:15:24.113Z,6
2019-03-30T03:15:54.707Z,6
2019-03-30T03:16:28.713Z,6
2019-03-30T03:16:56.086Z,6
2019-03-30T03:18:19.133Z,6
2019-03-30T03:19:18.155Z,5.9
2019-03-30T03:20:17.147Z,5.9
2019-03-30T03:21:16.046Z,5.9
2019-03-30T03:22:15.484Z,5.9
2019-03-30T03:23:14.288Z,5.9
2019-03-30T03:24:13.204Z,5.9
2019-03-30T03:25:12.671Z,5.9
2019-03-30T03:25:42.879Z,5.9
2019-03-30T03:26:13.082Z,5.9
2019-03-30T03:26:43.427Z,5.9
2019-03-30T03:27:13.656Z,5.9
2019-03-30T03:27:44.187Z,5.9
2019-03-30T03:29:08.757Z,5.8
2019-03-30T03:30:07.743Z,5.8
2019-03-30T03:31:06.778Z,5.8
2019-03-30T03:32:05.911Z,5.8
2019-03-30T03:33:04.945Z,5.8
2019-03-30T03:34:03.957Z,5.8
2019-03-30T03:35:03.215Z,5.7
2019-03-30T03:35:33.432Z,5.7
2019-03-30T03:36:03.658Z,5.7
2019-03-30T03:36:33.782Z,5.7
2019-03-30T03:37:04.507Z,5.7
2019-03-30T03:37:47.579Z,5.7
2019-03-30T03:38:59.388Z,5.7
2019-03-30T03:39:58.085Z,5.7
2019-03-30T03:40:57.508Z,5.7
2019-03-30T03:41:56.315Z,5.7
2019-03-30T03:42:55.599Z,5.7
2019-03-30T03:43:54.396Z,5.7
2019-03-30T03:44:53.845Z,5.7
2019-03-30T03:45:52.660Z,5.6
2019-03-30T03:46:23.387Z,5.6
2019-03-30T03:46:53.500Z,5.6
2019-03-30T03:47:24.151Z,5.6
2019-03-30T03:48:49.710Z,5.7
2019-03-30T03:49:49.013Z,5.7
2019-03-30T03:50:54.160Z,5.7
2019-03-30T03:51:47.017Z,5.7
2019-03-30T03:52:45.851Z,5.7
2019-03-30T03:53:45.236Z,5.7
2019-03-30T03:54:44.136Z,5.7
2019-03-30T03:55:43.325Z,5.6
2019-03-30T03:56:42.219Z,5.7
2019-03-30T03:57:12.325Z,5.7
2019-03-30T03:57:43.055Z,5.7
2019-03-30T03:58:40.452Z,5.6
2019-03-30T03:59:39.247Z,5.6
2019-03-30T04:00:38.639Z,5.6
2019-03-30T04:01:37.580Z,5.6
2019-03-30T04:02:36.467Z,5.6
2019-03-30T04:03:35.750Z,5.6
2019-03-30T04:04:34.644Z,5.6
2019-03-30T04:05:34.013Z,5.6
2019-03-30T04:06:32.903Z,5.6
2019-03-30T04:07:31.682Z,5.6
2019-03-30T04:08:30.991Z,5.6
2019-03-30T04:09:29.874Z,5.6
2019-03-30T04:10:29.278Z,5.6
2019-03-30T04:11:28.067Z,5.5
2019-03-30T04:12:27.442Z,5.6
2019-03-30T04:12:58.056Z,5.6
2019-03-30T04:13:28.755Z,5.5
2019-03-30T04:14:25.049Z,5.5
2019-03-30T04:15:24.430Z,5.5
2019-03-30T04:16:23.337Z,5.5
2019-03-30T04:17:22.755Z,5.5
2019-03-30T04:18:21.633Z,5.5
2019-03-30T04:19:20.520Z,5.4
2019-03-30T04:21:18.794Z,5.4
2019-03-30T04:22:17.713Z,5.4
2019-03-30T04:22:48.206Z,5.4
2019-03-30T04:24:15.794Z,5.4
2019-03-30T04:25:15.175Z,5.3
2019-03-30T04:26:13.988Z,5.3
2019-03-30T04:27:12.852Z,5.3
2019-03-30T04:28:12.225Z,5.3
2019-03-30T04:29:11.004Z,5.3
2019-03-30T04:30:10.420Z,5.3
2019-03-30T04:31:09.317Z,5.2
2019-03-30T04:32:08.204Z,5.2
2019-03-30T04:32:38.178Z,5.2
2019-03-30T04:33:08.878Z,5.2
2019-03-30T04:33:39.486Z,5.2
2019-03-30T04:35:05.577Z,5.2
2019-03-30T04:36:04.405Z,5.2
2019-03-30T04:37:03.802Z,5.3
2019-03-30T04:38:02.496Z,5.2
2019-03-30T04:39:01.904Z,5.2
2019-03-30T04:40:01.020Z,5.2
2019-03-30T04:40:59.830Z,5.2
2019-03-30T04:41:58.609Z,5.2
2019-03-30T04:42:29.200Z,5.2
2019-03-30T04:42:59.908Z,5.2
2019-03-30T04:43:30.111Z,5.2
2019-03-30T04:44:00.197Z,5.2
2019-03-30T04:44:30.884Z,5.2
2019-03-30T04:45:54.922Z,5.2
2019-03-30T04:46:54.289Z,5.1
2019-03-30T04:47:53.061Z,5.1
2019-03-30T04:48:52.475Z,5.1
2019-03-30T04:49:51.340Z,5.1
2019-03-30T04:50:50.014Z,5.1
2019-03-30T04:51:59.199Z,5.1
2019-03-30T04:52:19.719Z,5.1
2019-03-30T04:52:50.411Z,5.1
2019-03-30T04:53:21.006Z,5.1
2019-03-30T04:53:51.700Z,5.1
2019-03-30T04:54:22.382Z,5.1
2019-03-30T04:55:45.301Z,5.1
2019-03-30T04:56:44.684Z,5.1
2019-03-30T04:57:43.553Z,5.1
2019-03-30T04:58:42.919Z,5.1
2019-03-30T04:59:41.591Z,5.1
2019-03-30T05:00:40.963Z,5.1
2019-03-30T05:01:39.853Z,5.1
2019-03-30T05:02:10.126Z,5.1
2019-03-30T05:02:40.300Z,5.1
2019-03-30T05:03:10.876Z,5.1
2019-03-30T05:03:41.572Z,5
2019-03-30T05:04:12.153Z,5
2019-03-30T05:04:42.731Z,5
2019-03-30T05:05:13.416Z,5
2019-03-30T05:06:34.968Z,5
2019-03-30T05:07:34.329Z,5
2019-03-30T05:08:33.005Z,5
2019-03-30T05:09:32.277Z,5
2019-03-30T05:10:31.139Z,5
2019-03-30T05:11:30.509Z,5
2019-03-30T05:12:01.203Z,5
2019-03-30T05:12:31.901Z,5
2019-03-30T05:13:02.493Z,5
2019-03-30T05:13:33.170Z,5
2019-03-30T05:14:03.757Z,5
2019-03-30T05:14:34.440Z,5
2019-03-30T05:15:05.166Z,5
2019-03-30T05:15:35.343Z,5
2019-03-30T05:16:05.873Z,5
2019-03-30T05:17:24.771Z,5
2019-03-30T05:18:23.640Z,5
2019-03-30T05:19:22.528Z,5
2019-03-30T05:20:21.597Z,5
2019-03-30T05:21:20.967Z,5
2019-03-30T05:21:51.552Z,5
2019-03-30T05:22:22.239Z,5
2019-03-30T05:22:52.926Z,5
2019-03-30T05:23:23.512Z,5
2019-03-30T05:23:54.189Z,5
2019-03-30T05:24:24.873Z,5
2019-03-30T05:24:55.471Z,5
2019-03-30T05:25:26.154Z,5
2019-03-30T05:25:56.737Z,5
2019-03-30T05:27:15.131Z,5.1
2019-03-30T05:28:13.915Z,5.1
2019-03-30T05:29:13.279Z,5.2
2019-03-30T05:30:12.148Z,5.2
2019-03-30T05:31:11.037Z,5.3
2019-03-30T05:32:10.407Z,5.3
2019-03-30T05:32:43.051Z,5.3
2019-03-30T05:33:11.720Z,5.3
2019-03-30T05:33:42.406Z,5.3
2019-03-30T05:34:12.996Z,5.3
2019-03-30T05:34:43.574Z,5.3
2019-03-30T05:35:14.119Z,5.4
2019-03-30T05:35:44.821Z,5.4
2019-03-30T05:37:05.329Z,5.4
2019-03-30T05:38:04.625Z,5.4
2019-03-30T05:39:03.501Z,5.4
2019-03-30T05:40:02.812Z,5.5
2019-03-30T05:41:01.778Z,5.4
2019-03-30T05:42:00.636Z,5.4
2019-03-30T05:42:31.297Z,5.4
2019-03-30T05:43:01.998Z,5.5
2019-03-30T05:43:32.390Z,5.5
2019-03-30T05:44:03.007Z,5.5
2019-03-30T05:44:33.590Z,5.5
2019-03-30T05:45:04.298Z,5.5
2019-03-30T05:45:34.450Z,5.5
2019-03-30T05:46:55.970Z,5.5
2019-03-30T05:47:54.876Z,5.5
2019-03-30T05:48:54.145Z,5.5
2019-03-30T05:49:53.001Z,5.5
2019-03-30T05:50:52.376Z,5.5
2019-03-30T05:51:51.242Z,5.5
2019-03-30T05:52:50.003Z,5.5
2019-03-30T05:53:20.696Z,5.5
2019-03-30T05:53:51.376Z,5.5
2019-03-30T05:54:22.051Z,5.5
2019-03-30T05:54:52.734Z,5.5
2019-03-30T05:55:23.416Z,5.5
2019-03-30T05:56:46.341Z,5.5
2019-03-30T05:57:45.719Z,5.5
2019-03-30T05:58:44.481Z,5.5
2019-03-30T05:59:43.751Z,5.6
2019-03-30T06:00:42.538Z,5.6
2019-03-30T06:01:41.807Z,5.5
2019-03-30T06:02:40.671Z,5.6
2019-03-30T06:03:39.942Z,5.6
2019-03-30T06:04:10.433Z,5.6
2019-03-30T06:04:41.030Z,5.5
2019-03-30T06:05:11.700Z,5.5
2019-03-30T06:06:36.728Z,5.6
2019-03-30T06:07:36.007Z,5.6
2019-03-30T06:08:34.881Z,5.6
2019-03-30T06:09:34.254Z,5.6
2019-03-30T06:10:33.168Z,5.6
2019-03-30T06:11:31.950Z,5.6
2019-03-30T06:12:31.222Z,5.7
2019-03-30T06:13:30.085Z,5.7
2019-03-30T06:14:29.453Z,5.7
2019-03-30T06:14:59.947Z,5.7
2019-03-30T06:16:27.593Z,5.8
2019-03-30T06:17:26.362Z,5.8
2019-03-30T06:18:25.592Z,5.8
2019-03-30T06:19:24.359Z,5.8
2019-03-30T06:20:23.526Z,5.8
2019-03-30T06:21:22.801Z,5.8
2019-03-30T06:22:21.661Z,5.8
2019-03-30T06:23:21.046Z,5.8
2019-03-30T06:24:19.806Z,5.8
2019-03-30T06:24:50.488Z,5.8
2019-03-30T06:25:20.695Z,5.8
2019-03-30T06:25:50.882Z,5.8
2019-03-30T06:26:21.574Z,5.9
2019-03-30T06:27:16.921Z,5.9
2019-03-30T06:28:16.325Z,6
2019-03-30T06:29:14.994Z,6
2019-03-30T06:30:14.359Z,6
2019-03-30T06:31:13.166Z,6
2019-03-30T06:32:12.524Z,6.1
2019-03-30T06:33:11.397Z,6.1
2019-03-30T06:34:10.258Z,6.1
2019-03-30T06:35:09.545Z,6.2
2019-03-30T06:36:08.466Z,6.2
2019-03-30T06:37:07.337Z,6.2
2019-03-30T06:38:06.616Z,6.2
2019-03-30T06:39:05.496Z,6.2
2019-03-30T06:40:04.689Z,6.2
2019-03-30T06:40:35.276Z,6.2
2019-03-30T06:41:05.773Z,6.2
2019-03-30T06:41:36.460Z,6.2
2019-03-30T06:42:07.159Z,6.3
2019-03-30T06:43:01.906Z,6.3
2019-03-30T06:44:00.674Z,6.3
2019-03-30T06:45:00.142Z,6.3
2019-03-30T06:45:59.121Z,6.3
2019-03-30T06:46:57.795Z,6.3
2019-03-30T06:47:57.176Z,6.4
2019-03-30T06:48:55.940Z,6.4
2019-03-30T06:49:55.308Z,6.4
2019-03-30T06:50:25.896Z,6.4
2019-03-30T06:50:56.533Z,6.4
2019-03-30T06:51:26.668Z,6.4
2019-03-30T06:51:57.436Z,6.5
2019-03-30T06:52:27.633Z,6.5
2019-03-30T06:53:00.081Z,6.5
2019-03-30T06:53:51.459Z,6.5
2019-03-30T06:54:50.348Z,6.5
2019-03-30T06:55:49.723Z,6.6
2019-03-30T06:56:48.592Z,6.6
2019-03-30T06:57:47.861Z,6.7
2019-03-30T06:59:46.106Z,6.7
2019-03-30T07:00:16.875Z,6.7
2019-03-30T07:00:46.851Z,6.8
2019-03-30T07:01:17.540Z,6.8
2019-03-30T07:02:42.986Z,6.9
2019-03-30T07:03:42.255Z,6.9
2019-03-30T07:05:40.417Z,7.1
2019-03-30T07:06:39.283Z,7.1
2019-03-30T07:07:38.095Z,7.2
2019-03-30T07:08:37.275Z,7.2
2019-03-30T07:09:36.638Z,7.2
2019-03-30T07:10:07.231Z,7.2
2019-03-30T07:10:39.612Z,7.3
2019-03-30T07:11:22.554Z,7.3
2019-03-30T07:11:38.651Z,7.3
2019-03-30T07:12:09.327Z,7.3
2019-03-30T07:13:32.855Z,7.4
2019-03-30T07:14:31.723Z,7.4
2019-03-30T07:15:30.796Z,7.4
2019-03-30T07:16:30.424Z,7.4
2019-03-30T07:17:29.292Z,7.5
2019-03-30T07:18:28.060Z,7.5
2019-03-30T07:19:27.543Z,7.5
2019-03-30T07:19:57.636Z,7.5
2019-03-30T07:20:28.330Z,7.5
2019-03-30T07:20:59.010Z,7.5
2019-03-30T07:22:24.345Z,7.6
2019-03-30T07:22:55.051Z,7.6
2019-03-30T07:23:25.150Z,7.6
2019-03-30T07:23:55.832Z,7.6
2019-03-30T07:25:21.907Z,7.7
2019-03-30T07:27:19.650Z,7.8
2019-03-30T07:28:19.092Z,7.8
2019-03-30T07:29:17.974Z,7.8
2019-03-30T07:29:48.667Z,7.8
2019-03-30T07:31:16.117Z,7.9
2019-03-30T07:31:46.804Z,7.9
2019-03-30T07:32:17.494Z,8
2019-03-30T07:32:48.170Z,8
2019-03-30T07:33:18.852Z,8
2019-03-30T07:33:49.535Z,8
2019-03-30T07:35:12.565Z,8
2019-03-30T07:36:11.332Z,8.1
2019-03-30T07:37:10.699Z,8.1
2019-03-30T07:38:09.567Z,8.1
2019-03-30T07:39:08.940Z,8.1
2019-03-30T07:39:39.622Z,8.1
2019-03-30T07:40:10.200Z,8.1
2019-03-30T07:40:40.886Z,8.1
2019-03-30T07:41:11.586Z,8.2
2019-03-30T07:41:42.176Z,8.2
2019-03-30T07:42:12.853Z,8.3
2019-03-30T07:42:43.547Z,8.3
2019-03-30T07:43:14.273Z,8.3
2019-03-30T07:43:44.268Z,8.3
2019-03-30T07:45:03.306Z,8.4
2019-03-30T07:46:01.993Z,8.4
2019-03-30T07:47:01.266Z,8.5
2019-03-30T07:48:00.637Z,8.5
2019-03-30T07:48:59.500Z,8.5
2019-03-30T07:49:58.292Z,8.5
2019-03-30T07:50:28.965Z,8.5
2019-03-30T07:50:59.663Z,8.6
2019-03-30T07:51:34.228Z,8.6
2019-03-30T07:52:00.957Z,8.7
2019-03-30T07:52:31.202Z,8.7
2019-03-30T07:53:01.457Z,8.7
2019-03-30T07:53:46.038Z,8.7
2019-03-30T07:54:53.922Z,8.7
2019-03-30T07:56:07.309Z,8.8
2019-03-30T07:56:23.673Z,8.8
2019-03-30T07:57:18.102Z,8.9
2019-03-30T07:57:24.630Z,8.9
2019-03-30T07:57:55.452Z,8.9
2019-03-30T07:58:50.212Z,8.9
2019-03-30T07:59:49.545Z,8.9
2019-03-30T08:00:48.542Z,8.9
2019-03-30T08:01:18.621Z,8.9
2019-03-30T08:01:49.303Z,8.9
2019-03-30T08:02:19.893Z,8.9
2019-03-30T08:02:50.404Z,9
2019-03-30T08:03:21.090Z,9
2019-03-30T08:03:51.686Z,8.9
2019-03-30T08:04:22.260Z,8.9
2019-03-30T08:05:43.688Z,9
2019-03-30T08:06:42.954Z,9
2019-03-30T08:07:42.366Z,9
2019-03-30T08:08:41.236Z,9.1
2019-03-30T08:09:40.425Z,9.2
2019-03-30T08:10:39.605Z,9.3
2019-03-30T08:11:10.184Z,9.3
2019-03-30T08:11:40.859Z,9.4
2019-03-30T08:12:11.551Z,9.4
2019-03-30T08:12:42.033Z,9.4
2019-03-30T08:13:12.721Z,9.4
2019-03-30T08:13:43.307Z,9.4
2019-03-30T08:14:13.707Z,9.4
2019-03-30T08:15:34.621Z,9.4
2019-03-30T08:16:33.987Z,9.4
2019-03-30T08:17:33.065Z,9.4
2019-03-30T08:18:32.444Z,9.4
2019-03-30T08:19:31.219Z,9.6
2019-03-30T08:20:30.597Z,9.7
2019-03-30T08:21:29.462Z,9.7
2019-03-30T08:22:00.046Z,9.7
2019-03-30T08:22:30.636Z,9.7
2019-03-30T08:23:01.318Z,9.7
2019-03-30T08:23:41.926Z,9.8
2019-03-30T08:24:02.551Z,9.8
2019-03-30T08:25:25.971Z,9.8
2019-03-30T08:26:25.139Z,9.9
2019-03-30T08:27:23.900Z,10
2019-03-30T08:28:23.274Z,10
2019-03-30T08:29:22.138Z,10.1
2019-03-30T08:30:21.500Z,10
2019-03-30T08:31:20.362Z,10.1
2019-03-30T08:32:19.625Z,10.1
2019-03-30T08:32:50.106Z,10.1
2019-03-30T08:33:20.600Z,10.2
2019-03-30T08:33:51.084Z,10.2
2019-03-30T08:34:21.771Z,10.2
2019-03-30T08:34:52.355Z,10.2
2019-03-30T08:35:23.034Z,10.2
2019-03-30T08:36:15.857Z,10.2
2019-03-30T08:37:15.143Z,10.3
2019-03-30T08:38:14.595Z,10.4
2019-03-30T08:39:13.517Z,10.4
2019-03-30T08:40:12.404Z,10.5
2019-03-30T08:41:11.779Z,10.5
2019-03-30T08:42:10.644Z,10.6
2019-03-30T08:43:10.005Z,10.7
2019-03-30T08:43:40.592Z,10.7
2019-03-30T08:44:11.275Z,10.7
2019-03-30T08:46:06.911Z,10.8
2019-03-30T08:47:06.186Z,10.8
2019-03-30T08:48:05.575Z,10.8
2019-03-30T08:49:04.356Z,10.8
2019-03-30T08:50:03.631Z,10.9
2019-03-30T08:51:02.491Z,11
2019-03-30T08:52:01.906Z,11
2019-03-30T08:53:00.669Z,11
2019-03-30T08:54:00.044Z,11
2019-03-30T08:54:59.435Z,11
2019-03-30T08:55:58.295Z,11
2019-03-30T08:56:57.569Z,11
2019-03-30T08:57:56.342Z,11
2019-03-30T08:59:54.511Z,11.2
2019-03-30T09:00:53.783Z,11.2
2019-03-30T09:01:53.145Z,11.3
2019-03-30T09:02:51.808Z,11.3
2019-03-30T09:03:51.180Z,11.3
2019-03-30T09:04:50.563Z,11.3
2019-03-30T09:05:49.255Z,11.4
2019-03-30T09:06:48.630Z,11.4
2019-03-30T09:07:47.903Z,11.5
2019-03-30T09:08:46.683Z,11.5
2019-03-30T09:09:17.369Z,11.5
2019-03-30T09:10:45.438Z,11.6
2019-03-30T09:11:45.033Z,11.6
2019-03-30T09:12:43.411Z,11.7
2019-03-30T09:13:42.773Z,11.8
2019-03-30T09:14:41.559Z,11.9
2019-03-30T09:15:40.744Z,11.9
2019-03-30T09:16:40.634Z,11.9
2019-03-30T09:17:38.895Z,12
2019-03-30T09:18:38.071Z,12
2019-03-30T09:19:08.652Z,12
2019-03-30T09:19:39.349Z,12
2019-03-30T09:20:10.039Z,12
2019-03-30T09:21:35.482Z,12.1
2019-03-30T09:22:34.747Z,12.1
2019-03-30T09:23:34.021Z,12.2
2019-03-30T09:24:32.805Z,12.2
2019-03-30T09:25:32.074Z,12.2
2019-03-30T09:26:31.465Z,12.2
2019-03-30T09:28:29.560Z,12.3
2019-03-30T09:29:00.237Z,12.3
2019-03-30T09:29:30.926Z,12.3
2019-03-30T09:30:01.510Z,12.3
2019-03-30T09:30:32.194Z,12.4
2019-03-30T09:31:02.881Z,12.4
2019-03-30T09:32:26.307Z,12.4
2019-03-30T09:33:25.575Z,12.4
2019-03-30T09:34:24.364Z,12.5
2019-03-30T09:35:23.811Z,12.5
2019-03-30T09:38:20.853Z,12.5
2019-03-30T09:38:51.446Z,12.5
2019-03-30T09:39:22.140Z,12.6
2019-03-30T09:39:52.721Z,12.6
2019-03-30T09:40:23.207Z,12.7
2019-03-30T09:40:53.889Z,12.7
2019-03-30T09:41:24.562Z,12.7
2019-03-30T09:41:55.144Z,12.7
2019-03-30T09:44:16.050Z,12.9
2019-03-30T09:45:14.820Z,12.9
2019-03-30T09:46:14.184Z,12.9
2019-03-30T09:47:13.484Z,13
2019-03-30T09:48:12.845Z,13
2019-03-30T09:48:43.443Z,13
2019-03-30T09:49:14.128Z,13
2019-03-30T09:49:44.820Z,13
2019-03-30T09:50:15.434Z,13
2019-03-30T09:50:46.102Z,13
2019-03-30T09:51:16.684Z,13.1
2019-03-30T09:51:47.163Z,13.1
2019-03-30T09:52:17.860Z,13.1
2019-03-30T09:52:48.545Z,13.1
2019-03-30T09:54:07.448Z,13.2
2019-03-30T09:55:06.727Z,13.3
2019-03-30T09:56:06.095Z,13.4
2019-03-30T09:57:04.941Z,13.4
2019-03-30T09:59:03.192Z,13.5
2019-03-30T09:59:33.871Z,13.5
2019-03-30T10:00:04.464Z,13.5
2019-03-30T10:00:35.158Z,13.5
2019-03-30T10:02:00.695Z,13.6
2019-03-30T10:02:31.173Z,13.6
2019-03-30T10:03:01.873Z,13.6
2019-03-30T10:03:32.047Z,13.6
2019-03-30T10:04:57.897Z,13.7
2019-03-30T10:05:57.266Z,13.7
2019-03-30T10:06:56.651Z,13.8
2019-03-30T10:07:55.925Z,13.8
2019-03-30T10:08:54.683Z,13.8
2019-03-30T10:09:25.170Z,13.8
2019-03-30T10:09:55.757Z,13.9
2019-03-30T10:10:26.519Z,13.9
2019-03-30T10:10:56.627Z,14
2019-03-30T10:11:27.327Z,14
2019-03-30T10:12:51.864Z,14.1
2019-03-30T10:13:22.636Z,14.1
2019-03-30T10:13:52.625Z,14.2
2019-03-30T10:14:49.998Z,14.2
2019-03-30T10:15:49.264Z,14.2
2019-03-30T10:16:50.013Z,14.2
2019-03-30T10:17:47.280Z,14.2
2019-03-30T10:18:46.718Z,14.2
2019-03-30T10:20:06.142Z,14.2
2019-03-30T10:20:16.696Z,14.2
2019-03-30T10:20:47.371Z,14.2
2019-03-30T10:21:17.957Z,14.2
2019-03-30T10:21:48.550Z,14.2
2019-03-30T10:22:19.031Z,14.2
2019-03-30T10:22:49.712Z,14.2
2019-03-30T10:23:20.392Z,14.2
2019-03-30T10:25:40.782Z,14.4
2019-03-30T10:26:40.143Z,14.5
2019-03-30T10:27:39.307Z,14.6
2019-03-30T10:28:38.481Z,14.6
2019-03-30T10:29:37.854Z,14.6
2019-03-30T10:30:36.726Z,14.7
2019-03-30T10:31:07.413Z,14.7
2019-03-30T10:31:38.085Z,14.7
2019-03-30T10:32:08.767Z,14.7
2019-03-30T10:32:39.442Z,14.8
2019-03-30T10:33:10.120Z,14.8
2019-03-30T10:34:33.362Z,15
2019-03-30T10:35:32.726Z,15
2019-03-30T10:36:32.127Z,15
2019-03-30T10:37:30.888Z,15.1
2019-03-30T10:39:29.645Z,15
2019-03-30T10:40:29.015Z,14.9
2019-03-30T10:41:27.889Z,14.9
2019-03-30T10:41:58.576Z,14.9
2019-03-30T10:44:25.542Z,15
2019-03-30T10:45:24.810Z,15
2019-03-30T10:46:24.074Z,15
2019-03-30T10:47:22.838Z,15
2019-03-30T10:48:22.117Z,15
2019-03-30T10:49:21.498Z,15
2019-03-30T10:50:20.770Z,15
2019-03-30T10:51:20.228Z,15
2019-03-30T10:52:18.931Z,15.1
2019-03-30T10:52:49.605Z,15.1
2019-03-30T10:53:20.195Z,15.1
2019-03-30T10:53:50.779Z,15.1
2019-03-30T10:54:21.359Z,15.1
2019-03-30T10:54:54.363Z,15.1
2019-03-30T10:55:22.564Z,15.1
2019-03-30T10:56:15.887Z,15.2
2019-03-30T10:57:15.164Z,15.2
2019-03-30T10:58:14.528Z,15.2
2019-03-30T10:59:13.425Z,15.3
2019-03-30T11:00:12.787Z,15.3
2019-03-30T11:01:12.164Z,15.3
2019-03-30T11:02:10.927Z,15.3
2019-03-30T11:03:10.200Z,15.3
2019-03-30T11:03:40.882Z,15.3
2019-03-30T11:04:11.556Z,15.3
2019-03-30T11:05:08.922Z,15.3
2019-03-30T11:06:08.200Z,15.2
2019-03-30T11:07:07.144Z,15.2
2019-03-30T11:08:06.533Z,15.2
2019-03-30T11:09:05.910Z,15.2
2019-03-30T11:10:04.784Z,15.2
2019-03-30T11:11:04.060Z,15.2
2019-03-30T11:12:03.432Z,15.2
2019-03-30T11:13:02.812Z,15.2
2019-03-30T11:14:01.579Z,15.3
2019-03-30T11:15:01.079Z,15.3
2019-03-30T11:16:00.447Z,15.3
2019-03-30T11:16:59.314Z,15.3
2019-03-30T11:17:58.580Z,15.3
2019-03-30T11:18:57.958Z,15.4
2019-03-30T11:19:28.545Z,15.4
2019-03-30T11:19:59.132Z,15.5
2019-03-30T11:20:29.817Z,15.5
2019-03-30T11:21:00.306Z,15.5
2019-03-30T11:21:55.605Z,15.6
2019-03-30T11:22:54.989Z,15.6
2019-03-30T11:25:09.886Z,15.6
2019-03-30T11:25:23.263Z,15.6
2019-03-30T11:25:53.942Z,15.7
2019-03-30T11:26:51.808Z,15.8
2019-03-30T11:27:51.176Z,15.8
2019-03-30T11:28:49.755Z,15.9